Time;durP1;ratioP1;P1;durP2;ratioP2;P2;SDS_P1;SDS_P2;PMS_P1;PMS_P2;Temp;Humidity;BMP_temperature;BMP_pressure;BME280_temperature;BME280_humidity;BME280_pressure;Samples;Min_cycle;Max_cycle;Signal;HPM_P1;HPM_P2
2022/09/26 00:01:36;;;;;;;3.57;3.37;;;23.20;65.70;;;;;;5052068;28;20436;-72
2022/09/26 00:04:08;;;;;;;3.50;3.30;;;23.20;65.70;;;;;;5048317;28;20459;-72
2022/09/26 00:06:36;;;;;;;3.50;3.30;;;23.20;65.70;;;;;;5032212;28;20453;-71
2022/09/26 00:09:04;;;;;;;4.37;4.07;;;23.20;65.70;;;;;;5050178;28;20447;-71
2022/09/26 00:11:34;;;;;;;3.00;2.80;;;23.20;65.70;;;;;;5052551;28;20488;-72
2022/09/26 00:14:05;;;;;;;3.23;3.03;;;23.20;65.70;;;;;;5051330;28;20485;-72
2022/09/26 00:16:35;;;;;;;3.93;3.53;;;23.20;65.70;;;;;;5051438;28;20429;-72
2022/09/26 00:19:04;;;;;;;3.43;3.23;;;23.20;65.70;;;;;;5051326;28;20435;-76
2022/09/26 00:21:33;;;;;;;3.00;2.80;;;23.20;65.70;;;;;;5051970;28;20447;-71
2022/09/26 00:24:02;;;;;;;3.50;3.30;;;23.20;65.70;;;;;;5050793;28;20435;-72
2022/09/26 00:26:32;;;;;;;3.27;3.03;;;23.20;65.70;;;;;;5051603;28;20479;-74
2022/09/26 00:29:03;;;;;;;3.40;3.20;;;23.20;65.70;;;;;;5051914;28;20443;-74
2022/09/26 00:31:34;;;;;;;3.10;2.90;;;23.20;65.70;;;;;;5052051;28;20454;-72
2022/09/26 00:34:03;;;;;;;2.67;2.57;;;23.20;65.60;;;;;;5052189;28;20461;-71
2022/09/26 00:36:32;;;;;;;3.53;3.23;;;23.20;65.70;;;;;;5055449;28;20479;-72
2022/09/26 00:39:07;;;;;;;3.13;2.93;;;23.20;65.60;;;;;;5048194;28;20548;-71
2022/09/26 00:41:36;;;;;;;3.63;3.40;;;23.20;65.70;;;;;;5055606;28;20450;-72
2022/09/26 00:44:43;;;;;;;3.03;2.83;;;23.20;65.60;;;;;;5055410;28;20862;-72
2022/09/26 00:47:32;;;;;;;3.53;3.17;;;23.20;65.70;;;;;;5055087;28;20423;-72
2022/09/26 00:50:06;;;;;;;3.10;3.00;;;23.20;65.70;;;;;;5053930;28;20441;-77
2022/09/26 00:52:38;;;;;;;3.60;3.40;;;23.20;65.70;;;;;;5048073;28;20509;-75
2022/09/26 00:55:11;;;;;;;3.27;3.07;;;23.20;65.70;;;;;;5053785;28;20470;-71
2022/09/26 00:57:44;;;;;;;3.17;2.97;;;23.20;65.70;;;;;;5053876;28;21338;-71
2022/09/26 01:00:14;;;;;;;3.80;3.50;;;23.20;65.70;;;;;;5054225;28;20754;-72
2022/09/26 01:02:46;;;;;;;3.33;3.03;;;23.20;65.70;;;;;;5054881;28;20451;-72
2022/09/26 01:05:18;;;;;;;3.00;2.80;;;23.10;65.70;;;;;;5046879;28;21151;-72
2022/09/26 01:07:47;;;;;;;3.10;2.90;;;23.10;65.60;;;;;;5054834;28;20985;-72
2022/09/26 01:10:15;;;;;;;3.10;2.90;;;23.10;65.60;;;;;;5053876;28;20915;-72
2022/09/26 01:12:44;;;;;;;3.03;2.83;;;23.20;65.60;;;;;;5054464;28;20474;-72
2022/09/26 01:15:12;;;;;;;2.97;2.80;;;23.10;65.60;;;;;;5049497;28;20474;-72
2022/09/26 01:17:43;;;;;;;3.20;3.00;;;23.20;65.60;;;;;;5048463;28;20466;-73
2022/09/26 01:20:35;;;;;;;2.87;2.67;;;23.10;65.60;;;;;;5050461;28;20447;-72
2022/09/26 01:23:30;;;;;;;3.17;2.97;;;23.10;65.60;;;;;;5050005;28;20435;-72
2022/09/26 01:26:45;;;;;;;2.83;2.67;;;23.10;65.60;;;;;;5054767;28;20444;-71
2022/09/26 01:29:45;;;;;;;2.77;2.60;;;23.10;65.60;;;;;;5046827;28;20554;-72
2022/09/26 01:35:17;;;;;;;3.40;3.20;;;23.10;65.60;;;;;;5052976;28;20524;-72
2022/09/26 01:37:58;;;;;;;2.87;2.67;;;23.10;65.60;;;;;;5050826;28;20450;-73
2022/09/26 01:40:34;;;;;;;2.93;2.73;;;23.10;65.60;;;;;;5048871;28;20812;-71
2022/09/26 01:43:07;;;;;;;2.90;2.70;;;23.10;65.60;;;;;;5050696;28;20470;-72
2022/09/26 01:45:45;;;;;;;2.80;2.60;;;23.10;65.60;;;;;;5049320;28;20446;-71
2022/09/26 01:48:19;;;;;;;3.20;3.00;;;23.10;65.60;;;;;;5052029;28;20459;-74
2022/09/26 01:50:52;;;;;;;2.87;2.67;;;23.10;65.60;;;;;;5052045;28;20491;-71
2022/09/26 01:53:25;;;;;;;2.77;2.57;;;23.10;65.60;;;;;;5052443;28;20538;-73
2022/09/26 01:56:02;;;;;;;2.90;2.70;;;23.10;65.60;;;;;;5050656;28;20457;-72
2022/09/26 01:58:34;;;;;;;3.43;3.17;;;23.10;65.60;;;;;;5047928;28;20996;-74
2022/09/26 02:01:07;;;;;;;3.20;3.00;;;23.10;65.60;;;;;;5052125;28;20487;-72
2022/09/26 02:03:41;;;;;;;2.33;2.23;;;23.10;65.60;;;;;;5053938;28;20553;-71
2022/09/26 02:06:18;;;;;;;3.00;2.80;;;23.10;65.60;;;;;;5048970;28;20460;-72
2022/09/26 02:08:52;;;;;;;3.03;2.80;;;23.10;65.60;;;;;;5053064;28;20520;-71
2022/09/26 02:11:23;;;;;;;3.40;3.07;;;23.10;65.60;;;;;;5052810;28;20850;-72
2022/09/26 02:13:55;;;;;;;3.20;2.57;;;23.10;65.50;;;;;;5051864;28;20577;-73
2022/09/26 02:16:28;;;;;;;2.47;2.33;;;23.10;65.50;;;;;;5052689;28;20467;-72
2022/09/26 02:19:05;;;;;;;2.53;2.30;;;23.10;65.50;;;;;;5052062;28;20498;-71
2022/09/26 02:21:33;;;;;;;2.70;2.50;;;23.10;65.50;;;;;;5053168;28;20423;-72
2022/09/26 02:24:02;;;;;;;3.10;2.90;;;23.10;65.50;;;;;;5051565;28;20918;-73
2022/09/26 02:26:30;;;;;;;2.30;2.10;;;23.10;65.50;;;;;;5051392;28;20479;-71
2022/09/26 02:29:00;;;;;;;2.70;2.50;;;23.10;65.50;;;;;;5052062;28;20533;-71
2022/09/26 02:31:38;;;;;;;2.87;2.60;;;23.10;65.50;;;;;;5051116;28;20455;-72
2022/09/26 02:34:08;;;;;;;2.50;2.40;;;23.10;65.50;;;;;;5051553;28;20443;-71
2022/09/26 02:36:37;;;;;;;3.00;2.70;;;23.10;65.50;;;;;;5052976;28;20445;-71
2022/09/26 02:39:05;;;;;;;3.00;2.80;;;23.10;65.50;;;;;;5050799;28;20457;-72
2022/09/26 02:41:48;;;;;;;2.53;2.43;;;23.10;65.50;;;;;;5053067;28;20421;-72
2022/09/26 02:44:30;;;;;;;2.80;2.60;;;23.10;65.50;;;;;;5051355;28;20532;-71
2022/09/26 02:47:15;;;;;;;4.57;2.33;;;23.10;65.50;;;;;;5048637;28;20444;-71
2022/09/26 02:50:07;;;;;;;2.73;2.53;;;23.10;65.50;;;;;;5051634;28;20542;-71
2022/09/26 02:52:45;;;;;;;3.00;2.80;;;23.10;65.50;;;;;;5051224;28;20428;-72
2022/09/26 02:55:21;;;;;;;2.30;2.10;;;23.10;65.50;;;;;;5050188;28;20474;-72
2022/09/26 02:58:04;;;;;;;2.50;2.30;;;23.10;65.60;;;;;;5051450;28;20467;-72
2022/09/26 03:00:46;;;;;;;2.70;2.50;;;23.10;65.70;;;;;;5051174;28;20465;-72
2022/09/26 03:03:22;;;;;;;2.63;2.20;;;23.10;65.70;;;;;;5051607;28;20509;-71
2022/09/26 03:05:56;;;;;;;2.57;2.47;;;23.10;65.70;;;;;;5050421;28;20565;-72
2022/09/26 03:08:29;;;;;;;2.27;2.17;;;23.10;65.60;;;;;;5048793;28;20557;-73
2022/09/26 03:11:01;;;;;;;2.60;2.50;;;23.10;65.60;;;;;;5046377;28;20450;-72
2022/09/26 03:13:34;;;;;;;2.63;2.43;;;23.10;65.60;;;;;;5031568;28;20488;-72
2022/09/26 03:16:03;;;;;;;2.20;2.10;;;23.00;65.60;;;;;;5032616;28;20474;-71
2022/09/26 03:18:37;;;;;;;2.80;2.60;;;23.10;65.60;;;;;;5031410;28;21170;-72
2022/09/26 03:21:07;;;;;;;2.53;2.37;;;23.00;65.60;;;;;;5031601;28;20799;-71
2022/09/26 03:23:39;;;;;;;3.77;2.07;;;23.00;65.60;;;;;;5032163;28;20892;-72
2022/09/26 03:26:11;;;;;;;2.63;2.43;;;23.00;65.60;;;;;;5044691;28;20465;-71
2022/09/26 03:28:48;;;;;;;2.27;2.17;;;23.00;65.60;;;;;;5051409;28;20486;-71
2022/09/26 03:31:17;;;;;;;7.10;2.27;;;23.00;65.60;;;;;;5050899;28;20489;-71
2022/09/26 03:33:58;;;;;;;2.70;2.50;;;23.10;65.60;;;;;;5052110;28;20963;-71
2022/09/26 03:36:28;;;;;;;2.77;2.47;;;23.00;65.60;;;;;;5051125;28;20489;-72
2022/09/26 03:38:56;;;;;;;2.40;2.30;;;23.00;65.50;;;;;;5051466;28;20469;-71
2022/09/26 03:41:41;;;;;;;2.30;2.20;;;23.00;65.50;;;;;;5044458;28;20537;-72
2022/09/26 03:44:25;;;;;;;2.63;2.43;;;23.00;65.50;;;;;;5032395;28;20450;-71
2022/09/26 03:47:14;;;;;;;2.50;2.30;;;23.00;65.50;;;;;;5041193;28;20540;-72
2022/09/26 03:49:45;;;;;;;2.20;2.10;;;23.00;65.50;;;;;;5050797;28;20451;-72
2022/09/26 03:52:14;;;;;;;3.13;2.40;;;23.00;65.50;;;;;;5039936;28;20472;-72
2022/09/26 03:54:44;;;;;;;2.00;1.90;;;23.00;65.50;;;;;;5050982;28;20444;-71
2022/09/26 03:57:12;;;;;;;2.37;2.27;;;23.00;65.50;;;;;;5051680;28;20446;-73
2022/09/26 03:59:48;;;;;;;2.20;2.10;;;23.00;65.50;;;;;;5046017;28;20573;-71
2022/09/26 04:02:18;;;;;;;2.33;2.23;;;23.00;65.50;;;;;;5033736;28;20482;-72
2022/09/26 04:04:51;;;;;;;2.20;2.00;;;23.00;65.50;;;;;;5050518;28;20466;-71
2022/09/26 04:07:22;;;;;;;2.40;2.20;;;23.00;65.50;;;;;;5038791;28;20470;-71
2022/09/26 04:09:50;;;;;;;2.13;2.03;;;23.00;65.50;;;;;;5031181;28;20514;-72
2022/09/26 04:12:19;;;;;;;2.27;2.17;;;23.00;65.50;;;;;;5045716;28;20484;-71
2022/09/26 04:14:48;;;;;;;2.07;1.87;;;23.00;65.50;;;;;;5039584;28;20462;-71
2022/09/26 04:17:16;;;;;;;1.93;1.83;;;23.00;65.50;;;;;;5041498;28;20832;-71
2022/09/26 04:19:47;;;;;;;2.60;2.40;;;23.00;65.50;;;;;;5035500;28;20448;-72
2022/09/26 04:22:15;;;;;;;2.10;2.00;;;23.00;65.50;;;;;;5047058;28;20513;-71
2022/09/26 04:24:45;;;;;;;2.67;2.47;;;23.00;65.50;;;;;;5032692;28;20451;-71
2022/09/26 04:27:15;;;;;;;2.03;1.93;;;23.00;65.60;;;;;;5051990;28;20592;-70
2022/09/26 04:29:46;;;;;;;2.70;2.03;;;23.00;65.60;;;;;;5052836;28;20462;-70
2022/09/26 04:32:19;;;;;;;1.93;1.83;;;23.00;65.60;;;;;;5042986;28;20953;-71
2022/09/26 04:35:20;;;;;;;2.40;2.30;;;22.90;65.70;;;;;;5040270;28;20565;-72
2022/09/26 04:37:50;;;;;;;2.30;2.10;;;22.90;66.10;;;;;;5035112;28;20487;-71
2022/09/26 04:40:19;;;;;;;2.80;2.47;;;23.00;66.10;;;;;;5049785;28;20442;-71
2022/09/26 04:43:02;;;;;;;2.63;2.17;;;22.90;66.10;;;;;;5053882;28;20486;-73
2022/09/26 04:45:30;;;;;;;6.13;1.80;;;23.00;66.10;;;;;;5051083;28;20896;-73
2022/09/26 04:47:59;;;;;;;2.47;2.27;;;23.00;66.20;;;;;;5039696;28;20470;-72
2022/09/26 04:50:27;;;;;;;2.13;1.93;;;23.00;66.20;;;;;;5039049;28;20867;-72
2022/09/26 04:53:06;;;;;;;2.70;2.00;;;23.00;66.20;;;;;;5054865;28;20833;-72
2022/09/26 04:55:43;;;;;;;2.67;2.00;;;23.00;66.30;;;;;;5042052;28;21412;-72
2022/09/26 04:58:12;;;;;;;4.17;1.90;;;23.00;66.50;;;;;;5042247;28;20459;-71
2022/09/26 05:00:46;;;;;;;1.90;1.80;;;23.00;66.50;;;;;;5038429;28;20545;-76
2022/09/26 05:03:19;;;;;;;2.50;2.03;;;23.00;66.60;;;;;;5047874;28;20466;-72
2022/09/26 05:05:49;;;;;;;2.77;2.60;;;23.00;66.60;;;;;;5046219;28;20459;-74
2022/09/26 05:08:17;;;;;;;1.83;1.73;;;23.00;66.80;;;;;;5047226;28;20482;-73
2022/09/26 05:10:53;;;;;;;2.50;2.30;;;23.00;66.90;;;;;;5038607;28;20550;-74
2022/09/26 05:13:22;;;;;;;2.20;1.93;;;23.00;67.00;;;;;;5042763;28;20845;-75
2022/09/26 05:15:52;;;;;;;2.93;2.40;;;23.00;67.00;;;;;;5046127;28;20486;-75
2022/09/26 05:18:23;;;;;;;3.00;2.27;;;23.00;67.10;;;;;;5044456;28;20945;-75
2022/09/26 05:20:51;;;;;;;2.33;1.87;;;23.00;67.10;;;;;;5041792;28;20462;-74
2022/09/26 05:26:19;;;;;;;3.77;1.87;;;23.00;66.90;;;;;;5045416;28;20471;-73
2022/09/26 05:28:50;;;;;;;2.60;2.40;;;23.00;67.00;;;;;;5044514;28;20455;-72
2022/09/26 05:31:22;;;;;;;2.40;2.20;;;23.00;67.10;;;;;;5043690;28;20512;-73
2022/09/26 05:33:51;;;;;;;2.80;2.43;;;22.90;67.00;;;;;;5046642;28;20455;-72
2022/09/26 05:36:19;;;;;;;2.63;2.43;;;22.90;67.00;;;;;;5038176;28;20981;-72
2022/09/26 05:38:48;;;;;;;2.33;2.07;;;22.90;66.90;;;;;;5042789;28;20470;-74
2022/09/26 05:41:17;;;;;;;3.83;2.70;;;22.90;66.80;;;;;;5039567;28;20463;-73
2022/09/26 05:43:47;;;;;;;3.43;2.73;;;22.90;66.80;;;;;;5042154;28;20641;-72
2022/09/26 05:46:15;;;;;;;2.87;2.37;;;22.90;66.80;;;;;;5042225;28;20455;-73
2022/09/26 05:48:48;;;;;;;2.30;2.10;;;22.90;66.80;;;;;;5035924;28;20919;-72
2022/09/26 05:51:20;;;;;;;8.50;2.43;;;22.90;66.70;;;;;;5029730;28;20517;-72
2022/09/26 05:53:49;;;;;;;4.10;2.20;;;22.90;66.80;;;;;;5032053;28;20506;-72
2022/09/26 05:56:22;;;;;;;1.90;1.80;;;22.90;66.70;;;;;;5032616;28;20563;-72
2022/09/26 05:59:22;;;;;;;2.10;1.90;;;22.90;66.70;;;;;;5040885;28;20515;-73
2022/09/26 06:02:10;;;;;;;2.37;2.17;;;22.90;66.70;;;;;;5040613;28;20430;-72
2022/09/26 06:04:57;;;;;;;4.37;2.67;;;22.90;66.60;;;;;;5037806;28;20439;-72
2022/09/26 06:07:45;;;;;;;5.03;2.40;;;22.90;66.60;;;;;;5042156;28;20458;-72
2022/09/26 06:10:32;;;;;;;3.80;2.40;;;22.90;66.60;;;;;;5047944;28;20454;-72
2022/09/26 06:13:06;;;;;;;2.10;2.00;;;22.90;66.50;;;;;;5052999;28;20517;-72
2022/09/26 06:15:49;;;;;;;2.00;1.90;;;22.90;66.50;;;;;;5041913;28;20470;-72
2022/09/26 06:18:17;;;;;;;2.37;2.17;;;22.90;66.50;;;;;;5048969;28;20469;-72
2022/09/26 06:20:45;;;;;;;2.03;1.90;;;22.90;66.50;;;;;;5050712;28;20549;-71
2022/09/26 06:23:14;;;;;;;2.77;2.07;;;22.90;66.40;;;;;;5060932;28;20883;-71
2022/09/26 06:25:45;;;;;;;2.07;1.97;;;22.90;66.40;;;;;;5042481;28;20466;-71
2022/09/26 06:28:14;;;;;;;2.30;1.77;;;22.90;66.40;;;;;;5047822;28;21180;-72
2022/09/26 06:30:42;;;;;;;1.60;1.50;;;22.90;66.40;;;;;;5044681;28;20474;-73
2022/09/26 06:33:29;;;;;;;2.40;2.20;;;22.90;66.30;;;;;;5044849;28;20442;-72
2022/09/26 06:36:21;;;;;;;2.50;2.30;;;22.90;66.30;;;;;;5043686;28;20820;-71
2022/09/26 06:38:53;;;;;;;2.60;2.00;;;22.90;66.30;;;;;;5042297;28;20808;-72
2022/09/26 06:41:25;;;;;;;1.90;1.80;;;23.00;66.30;;;;;;5044765;28;20459;-71
2022/09/26 06:43:55;;;;;;;1.93;1.83;;;23.00;66.30;;;;;;5036820;28;20460;-72
2022/09/26 06:46:42;;;;;;;3.63;3.33;;;22.90;66.30;;;;;;5051758;28;20465;-73
2022/09/26 06:49:16;;;;;;;3.80;2.13;;;23.00;66.30;;;;;;5044568;28;20458;-73
2022/09/26 06:51:54;;;;;;;6.90;3.40;;;22.90;67.30;;;;;;5048225;28;20519;-73
2022/09/26 06:54:22;;;;;;;2.20;2.00;;;22.90;67.50;;;;;;5045893;28;20961;-75
2022/09/26 06:56:50;;;;;;;5.33;3.00;;;22.90;67.40;;;;;;5046099;28;20798;-74
2022/09/26 06:59:21;;;;;;;3.30;3.00;;;23.00;67.40;;;;;;5045640;28;20556;-75
2022/09/26 07:02:12;;;;;;;7.10;2.50;;;23.00;67.60;;;;;;5044815;28;20778;-75
2022/09/26 07:05:02;;;;;;;2.83;2.63;;;23.00;67.70;;;;;;5044044;28;20947;-76
2022/09/26 07:07:44;;;;;;;5.20;2.60;;;23.00;67.80;;;;;;5048684;28;20808;-74
2022/09/26 07:10:23;;;;;;;7.90;3.40;;;23.00;67.80;;;;;;5038664;28;20466;-74
2022/09/26 07:13:08;;;;;;;2.37;2.17;;;23.10;67.70;;;;;;5046765;28;20483;-72
2022/09/26 07:15:38;;;;;;;2.30;2.03;;;23.10;67.60;;;;;;5043632;28;20444;-74
2022/09/26 07:18:37;;;;;;;2.40;2.20;;;23.10;67.50;;;;;;5046036;28;20478;-73
2022/09/26 07:21:28;;;;;;;3.23;3.03;;;23.10;67.30;;;;;;5046106;28;20458;-73
2022/09/26 07:24:06;;;;;;;4.80;2.93;;;23.10;67.30;;;;;;5050340;28;20548;-75
2022/09/26 07:26:35;;;;;;;3.93;2.80;;;23.10;67.20;;;;;;5043131;28;20482;-74
2022/09/26 07:29:04;;;;;;;4.20;2.97;;;23.20;67.20;;;;;;5044752;28;20979;-75
2022/09/26 07:31:34;;;;;;;2.30;2.03;;;23.20;67.10;;;;;;5035850;28;20460;-74
2022/09/26 07:34:07;;;;;;;2.20;2.00;;;23.20;67.10;;;;;;5047686;28;20444;-73
2022/09/26 07:36:38;;;;;;;2.33;1.90;;;23.20;67.00;;;;;;5050002;28;20455;-74
2022/09/26 07:39:07;;;;;;;2.13;2.03;;;23.20;67.00;;;;;;5048464;28;20562;-73
2022/09/26 07:41:36;;;;;;;1.80;1.70;;;23.30;67.00;;;;;;5040287;28;20460;-74
2022/09/26 07:44:04;;;;;;;2.13;1.93;;;23.30;66.80;;;;;;5033338;28;20564;-76
2022/09/26 07:52:56;;;;;;;2.43;2.23;;;23.30;66.70;;;;;;5054344;28;20463;-72
2022/09/26 07:55:27;;;;;;;2.80;2.07;;;23.40;66.60;;;;;;5055245;28;20451;-74
2022/09/26 07:58:18;;;;;;;2.07;1.90;;;23.40;66.50;;;;;;5047092;28;20970;-73
2022/09/26 08:00:55;;;;;;;6.10;2.20;;;23.40;66.50;;;;;;5052860;28;20470;-73
2022/09/26 08:03:47;;;;;;;3.60;1.90;;;23.40;66.30;;;;;;5050620;28;20967;-73
2022/09/26 08:06:27;;;;;;;1.63;1.53;;;23.40;66.30;;;;;;5042368;28;20467;-75
2022/09/26 08:08:57;;;;;;;6.10;1.90;;;23.40;66.30;;;;;;5047432;28;20956;-74
2022/09/26 08:11:44;;;;;;;1.93;1.83;;;23.50;66.20;;;;;;5055506;28;20446;-75
2022/09/26 08:14:23;;;;;;;2.23;1.83;;;23.50;66.10;;;;;;5048676;28;20535;-74
2022/09/26 08:16:59;;;;;;;2.00;1.60;;;23.50;66.00;;;;;;5047284;28;20459;-73
2022/09/26 08:19:29;;;;;;;2.20;1.97;;;23.50;66.00;;;;;;5041298;28;20490;-75
2022/09/26 08:21:57;;;;;;;1.83;1.73;;;23.50;65.90;;;;;;5041429;28;20458;-74
2022/09/26 08:24:26;;;;;;;3.13;2.20;;;23.50;65.80;;;;;;5035115;28;20456;-74
2022/09/26 08:27:14;;;;;;;2.77;2.10;;;23.60;65.90;;;;;;5038809;28;20515;-75
2022/09/26 08:29:47;;;;;;;2.07;1.87;;;23.50;65.70;;;;;;5048094;28;20506;-75
2022/09/26 08:32:16;;;;;;;2.07;1.90;;;23.60;65.60;;;;;;5053285;28;20461;-74
2022/09/26 08:34:48;;;;;;;1.63;1.53;;;23.60;65.50;;;;;;5044891;28;20463;-75
2022/09/26 08:37:31;;;;;;;3.57;1.63;;;23.60;65.30;;;;;;5050323;28;20613;-75
2022/09/26 08:40:18;;;;;;;2.17;1.97;;;23.70;65.20;;;;;;5040126;28;20459;-75
2022/09/26 08:43:10;;;;;;;1.80;1.70;;;23.70;65.20;;;;;;5053163;28;20936;-73
2022/09/26 08:46:36;;;;;;;1.90;1.80;;;23.70;65.30;;;;;;5049313;28;20549;-73
2022/09/26 08:49:39;;;;;;;2.93;1.53;;;23.70;65.20;;;;;;5047559;28;20971;-75
2022/09/26 08:52:26;;;;;;;2.37;1.57;;;23.70;65.10;;;;;;5044664;28;20551;-75
2022/09/26 08:54:56;;;;;;;1.60;1.50;;;23.70;65.10;;;;;;5037352;28;20464;-76
2022/09/26 08:57:34;;;;;;;2.23;2.00;;;23.70;65.00;;;;;;5054106;28;20877;-74
2022/09/26 09:00:10;;;;;;;2.00;1.70;;;23.70;65.00;;;;;;5053194;28;20489;-75
2022/09/26 09:02:45;;;;;;;1.53;1.43;;;23.70;64.90;;;;;;5048616;28;20459;-73
2022/09/26 09:05:19;;;;;;;1.93;1.83;;;23.70;65.00;;;;;;5042775;28;20874;-74
2022/09/26 09:07:53;;;;;;;2.10;1.90;;;23.70;65.00;;;;;;5047584;28;20933;-73
2022/09/26 09:10:34;;;;;;;1.90;1.80;;;23.70;65.00;;;;;;5052556;28;20459;-73
2022/09/26 09:13:28;;;;;;;1.90;1.80;;;23.70;64.80;;;;;;5036488;28;20482;-73
2022/09/26 09:16:26;;;;;;;1.77;1.60;;;23.70;64.90;;;;;;5044746;28;20522;-74
2022/09/26 09:19:19;;;;;;;1.43;1.33;;;23.80;64.90;;;;;;5051589;28;20478;-74
2022/09/26 09:22:25;;;;;;;1.40;1.30;;;23.80;64.90;;;;;;5050850;28;20444;-73
2022/09/26 09:25:18;;;;;;;1.83;1.63;;;23.80;64.90;;;;;;5050996;28;20447;-73
2022/09/26 09:28:04;;;;;;;1.40;1.30;;;23.90;64.60;;;;;;5051728;28;20494;-74
2022/09/26 09:30:43;;;;;;;1.97;1.70;;;23.90;64.60;;;;;;5050480;28;20777;-73
2022/09/26 09:33:33;;;;;;;2.30;1.87;;;23.90;64.60;;;;;;5045535;28;20442;-73
2022/09/26 09:36:36;;;;;;;1.60;1.50;;;24.00;64.60;;;;;;5051404;28;20514;-75
2022/09/26 09:39:27;;;;;;;3.47;1.40;;;24.00;64.50;;;;;;5044564;28;20521;-74
2022/09/26 09:42:12;;;;;;;1.70;1.60;;;24.00;64.50;;;;;;5052806;28;20850;-75
2022/09/26 09:44:44;;;;;;;1.77;1.67;;;24.00;64.40;;;;;;5051997;28;20462;-74
2022/09/26 09:47:15;;;;;;;2.43;1.73;;;24.10;64.40;;;;;;5041901;28;20444;-74
2022/09/26 09:49:46;;;;;;;1.60;1.50;;;24.10;64.30;;;;;;5053780;28;20451;-74
2022/09/26 09:52:30;;;;;;;2.40;2.03;;;24.00;64.30;;;;;;5047004;28;20451;-73
2022/09/26 09:55:12;;;;;;;1.50;1.40;;;24.10;64.30;;;;;;5049332;28;20972;-75
2022/09/26 09:58:05;;;;;;;1.80;1.70;;;24.00;64.10;;;;;;5037916;28;21016;-75
2022/09/26 10:00:41;;;;;;;1.57;1.47;;;24.10;64.10;;;;;;5051454;28;20466;-75
2022/09/26 10:03:25;;;;;;;1.70;1.60;;;24.10;64.10;;;;;;5047119;28;20457;-74
2022/09/26 10:05:58;;;;;;;2.30;1.50;;;24.10;64.00;;;;;;5051144;28;20455;-76
2022/09/26 10:08:35;;;;;;;1.87;1.67;;;24.10;63.70;;;;;;5044681;28;20463;-76
2022/09/26 10:11:27;;;;;;;2.10;1.33;;;24.10;63.80;;;;;;5042637;28;20922;-76
2022/09/26 10:14:02;;;;;;;1.10;1.10;;;24.10;63.80;;;;;;5042215;28;20467;-76
2022/09/26 10:17:19;;;;;;;1.90;1.30;;;24.10;63.80;;;;;;5037154;28;20456;-75
2022/09/26 10:20:03;;;;;;;1.50;1.40;;;24.10;63.80;;;;;;5043194;28;20973;-75
2022/09/26 10:22:43;;;;;;;1.97;1.27;;;24.10;63.70;;;;;;5051209;28;20534;-80
2022/09/26 10:25:24;;;;;;;4.60;1.77;;;24.10;63.70;;;;;;5037386;28;20471;-73
2022/09/26 10:27:55;;;;;;;2.53;1.40;;;24.10;63.60;;;;;;5042322;28;20509;-75
2022/09/26 10:30:28;;;;;;;2.37;1.10;;;24.20;63.50;;;;;;5039064;28;20942;-76
2022/09/26 10:33:04;;;;;;;2.00;1.67;;;24.30;63.60;;;;;;5066025;28;20459;-76
2022/09/26 10:36:10;;;;;;;2.30;1.53;;;24.40;63.30;;;;;;5045139;28;20451;-75
2022/09/26 10:41:43;;;;;;;1.50;1.40;;;24.50;62.70;;;;;;5037296;28;20487;-73
2022/09/26 10:44:23;;;;;;;1.60;1.30;;;24.50;62.60;;;;;;5038331;28;20460;-77
2022/09/26 10:47:13;;;;;;;1.60;1.50;;;24.50;62.70;;;;;;5045097;28;20444;-75
2022/09/26 10:50:05;;;;;;;4.93;1.60;;;24.50;62.80;;;;;;5042157;28;20571;-76
2022/09/26 10:53:07;;;;;;;1.70;1.60;;;24.50;62.60;;;;;;5047974;28;20472;-75
2022/09/26 10:55:41;;;;;;;1.23;1.13;;;24.40;62.60;;;;;;5047200;28;20460;-80
2022/09/26 10:58:17;;;;;;;1.40;1.30;;;24.40;62.50;;;;;;5044740;28;20456;-79
2022/09/26 11:00:49;;;;;;;1.50;1.40;;;24.40;62.20;;;;;;5048661;28;20456;-80
2022/09/26 11:03:24;;;;;;;1.47;1.07;;;24.40;62.20;;;;;;5044241;28;20436;-79
2022/09/26 11:06:24;;;;;;;1.87;1.77;;;24.30;62.20;;;;;;5041085;28;20573;-81
2022/09/26 11:09:01;;;;;;;1.00;1.00;;;24.30;62.10;;;;;;5040041;28;20866;-80
2022/09/26 11:11:38;;;;;;;1.37;1.27;;;24.30;62.00;;;;;;5043121;28;20453;-79
2022/09/26 11:14:11;;;;;;;1.50;1.40;;;24.30;62.10;;;;;;5038468;28;20469;-78
2022/09/26 11:16:51;;;;;;;1.30;1.20;;;24.30;62.20;;;;;;5047768;28;20509;-79
2022/09/26 11:19:31;;;;;;;1.63;1.47;;;24.30;62.10;;;;;;5037751;28;20476;-78
2022/09/26 11:22:05;;;;;;;1.20;1.20;;;24.20;62.20;;;;;;5042472;28;20469;-79
2022/09/26 11:24:44;;;;;;;2.17;1.80;;;24.20;62.00;;;;;;5041196;28;20449;-79
2022/09/26 11:27:24;;;;;;;1.60;1.43;;;24.20;62.30;;;;;;5036353;28;20826;-78
2022/09/26 11:30:00;;;;;;;1.47;1.37;;;24.20;62.20;;;;;;5044896;28;20483;-79
2022/09/26 11:32:31;;;;;;;3.27;1.50;;;24.10;62.30;;;;;;5039109;28;20455;-79
2022/09/26 11:35:45;;;;;;;1.67;1.57;;;24.10;62.40;;;;;;5041220;28;20544;-79
2022/09/26 11:38:38;;;;;;;1.57;1.40;;;24.10;62.70;;;;;;5024761;28;21045;-80
2022/09/26 11:41:36;;;;;;;2.17;1.97;;;24.00;62.70;;;;;;5043332;28;20552;-82
2022/09/26 11:44:42;;;;;;;1.30;1.20;;;24.00;62.60;;;;;;5044882;28;20470;-81
2022/09/26 11:47:59;;;;;;;1.80;1.37;;;24.00;62.70;;;;;;5043361;28;20447;-79
2022/09/26 11:50:58;;;;;;;1.87;1.70;;;24.00;62.90;;;;;;5043178;28;20833;-79
2022/09/26 11:53:54;;;;;;;1.80;1.60;;;24.00;62.80;;;;;;5045933;28;20459;-79
2022/09/26 11:56:42;;;;;;;2.13;1.93;;;24.00;62.80;;;;;;5042660;28;20482;-79
2022/09/26 11:59:27;;;;;;;1.53;1.43;;;24.00;62.60;;;;;;5040211;28;20516;-74
2022/09/26 12:02:14;;;;;;;1.73;1.63;;;24.00;62.70;;;;;;5039402;28;20456;-83
2022/09/26 12:05:14;;;;;;;1.23;1.20;;;24.00;63.10;;;;;;5036243;28;20452;-83
2022/09/26 12:07:50;;;;;;;1.77;1.60;;;24.30;63.10;;;;;;5044249;28;20475;-82
2022/09/26 12:10:28;;;;;;;1.40;1.30;;;24.80;62.20;;;;;;5040962;28;20446;-84
2022/09/26 12:13:12;;;;;;;1.90;1.10;;;25.30;61.30;;;;;;5040955;28;20566;-82
2022/09/26 12:15:45;;;;;;;1.70;1.60;;;25.70;60.50;;;;;;5051572;28;20489;-80
2022/09/26 12:18:25;;;;;;;2.20;1.40;;;26.10;59.80;;;;;;5040601;28;20468;-79
2022/09/26 12:21:16;;;;;;;4.87;1.40;;;26.40;59.40;;;;;;5038187;28;20797;-82
2022/09/26 12:23:51;;;;;;;1.30;1.20;;;26.60;58.90;;;;;;5043804;28;20480;-82
2022/09/26 12:26:26;;;;;;;3.73;1.60;;;26.90;58.50;;;;;;5046097;28;20460;-74
2022/09/26 12:29:08;;;;;;;1.63;1.53;;;27.10;58.00;;;;;;5043423;28;20896;-72
2022/09/26 12:32:02;;;;;;;1.20;1.10;;;27.30;57.70;;;;;;5045645;28;20451;-77
2022/09/26 12:34:58;;;;;;;1.37;1.27;;;27.40;57.30;;;;;;5049957;28;20476;-75
2022/09/26 12:38:15;;;;;;;2.27;1.70;;;27.50;57.10;;;;;;5046347;28;20476;-70
2022/09/26 12:40:55;;;;;;;2.10;1.53;;;27.70;56.90;;;;;;4974668;28;20867;-71
2022/09/26 12:44:03;;;;;;;1.10;1.10;;;27.70;56.70;;;;;;4989745;28;21067;-72
2022/09/26 12:46:46;;;;;;;1.83;1.30;;;27.80;56.50;;;;;;5047764;28;20466;-72
2022/09/26 12:49:33;;;;;;;2.10;1.53;;;27.80;56.50;;;;;;5053729;28;20456;-80
2022/09/26 12:52:13;;;;;;;1.60;1.50;;;27.80;56.30;;;;;;5051793;28;20448;-79
2022/09/26 12:55:02;;;;;;;3.40;1.70;;;27.80;56.50;;;;;;5048969;28;20540;-78
2022/09/26 12:57:41;;;;;;;2.40;1.60;;;27.80;56.60;;;;;;5048413;28;20449;-80
2022/09/26 13:00:19;;;;;;;1.87;1.50;;;27.70;56.80;;;;;;5049236;28;20568;-82
2022/09/26 13:03:31;;;;;;;1.53;1.00;;;27.50;57.30;;;;;;5049784;28;20453;-81
2022/09/26 13:06:26;;;;;;;1.73;1.40;;;27.30;57.90;;;;;;5038144;28;20549;-80
2022/09/26 13:09:03;;;;;;;1.73;1.40;;;27.00;58.50;;;;;;5047780;28;20944;-83
2022/09/26 13:11:41;;;;;;;1.67;1.13;;;26.80;59.00;;;;;;5049121;28;20803;-81
2022/09/26 13:14:37;;;;;;;1.63;1.47;;;26.70;59.00;;;;;;5052317;28;20444;-81
2022/09/26 13:17:13;;;;;;;2.87;1.40;;;26.50;59.30;;;;;;5049866;28;20770;-82
2022/09/26 13:19:47;;;;;;;2.27;1.80;;;26.30;59.70;;;;;;5050626;28;20476;-81
2022/09/26 13:22:30;;;;;;;1.40;1.23;;;26.20;60.00;;;;;;5053053;28;20438;-80
2022/09/26 13:25:06;;;;;;;1.30;1.20;;;26.20;60.20;;;;;;5050092;28;20775;-81
2022/09/26 13:27:39;;;;;;;1.17;1.17;;;26.10;60.00;;;;;;5050221;28;20803;-82
2022/09/26 13:30:16;;;;;;;1.43;1.33;;;26.10;60.30;;;;;;5042829;28;20547;-78
2022/09/26 13:32:53;;;;;;;4.00;1.20;;;26.00;60.70;;;;;;5048275;28;20490;-80
2022/09/26 13:35:24;;;;;;;1.60;1.50;;;25.90;60.70;;;;;;5053463;28;20485;-88
2022/09/26 13:38:04;;;;;;;1.10;1.00;;;25.80;60.90;;;;;;5049141;28;20449;-82
2022/09/26 13:40:43;;;;;;;1.13;1.10;;;25.70;60.60;;;;;;5039821;28;20470;-81
2022/09/26 13:43:24;;;;;;;1.87;1.40;;;25.70;61.10;;;;;;5050043;28;20480;-78
2022/09/26 13:46:01;;;;;;;1.50;1.40;;;25.60;61.40;;;;;;5041009;28;20455;-77
2022/09/26 13:48:41;;;;;;;1.53;1.40;;;25.50;61.40;;;;;;5049112;28;20444;-79
2022/09/26 13:51:19;;;;;;;1.90;1.33;;;25.40;61.70;;;;;;5041677;28;20463;-80
2022/09/26 13:53:56;;;;;;;1.20;1.07;;;25.40;61.40;;;;;;5052653;28;20982;-78
2022/09/26 13:56:54;;;;;;;1.53;1.13;;;25.40;61.50;;;;;;5050016;28;20448;-77
2022/09/26 13:59:26;;;;;;;3.03;1.43;;;25.30;61.10;;;;;;5053015;28;20453;-80
2022/09/26 14:02:19;;;;;;;3.07;1.53;;;25.30;61.20;;;;;;5049108;28;20503;-81